Time;durP1;ratioP1;P1;durP2;ratioP2;P2;SDS_P1;SDS_P2;PMS_P1;PMS_P2;Temp;Humidity;BMP_temperature;BMP_pressure;BME280_temperature;BME280_humidity;BME280_pressure;Samples;Min_cycle;Max_cycle;Signal;HPM_P1;HPM_P2
2021/12/03 00:01:13;;;;;;;0.30;0.30;;;;;;;-5.10;81.95;84201.41;5085162;28;20069;-54
2021/12/03 00:03:39;;;;;;;0.10;0.10;;;;;;;-5.13;82.00;84199.69;5088309;28;20039;-58
2021/12/03 00:06:06;;;;;;;0.30;0.30;;;;;;;-5.15;81.98;84204.81;5085627;28;20024;-56
2021/12/03 00:08:32;;;;;;;0.30;0.30;;;;;;;-5.21;82.41;84204.78;5096910;28;20402;-55
2021/12/03 00:11:01;;;;;;;0.17;0.17;;;;;;;-5.22;82.56;84210.59;5085489;28;20085;-55
2021/12/03 00:13:28;;;;;;;0.55;0.30;;;;;;;-5.23;82.73;84212.53;5095780;28;20043;-55
2021/12/03 00:15:56;;;;;;;0.30;0.30;;;;;;;-5.26;80.80;84216.16;5100099;28;20035;-55
2021/12/03 00:18:22;;;;;;;1.83;0.32;;;;;;;-5.25;80.50;84220.28;5086444;28;20113;-55
2021/12/03 00:20:49;;;;;;;0.10;0.10;;;;;;;-5.25;80.10;84222.22;5078418;28;20484;-55
2021/12/03 00:23:16;;;;;;;0.20;0.20;;;;;;;-5.25;79.02;84225.59;5081754;28;20016;-56
2021/12/03 00:25:42;;;;;;;0.10;0.10;;;;;;;-5.28;79.29;84223.19;5084485;28;20059;-57
2021/12/03 00:28:09;;;;;;;0.85;0.35;;;;;;;-5.28;81.25;84213.25;5066169;28;20475;-55
2021/12/03 00:30:37;;;;;;;0.80;0.20;;;;;;;-5.31;81.25;84230.19;5074645;28;20055;-54
2021/12/03 00:33:05;;;;;;;0.20;0.20;;;;;;;-5.30;80.42;84226.31;5070712;28;20565;-55
2021/12/03 00:35:31;;;;;;;0.20;0.10;;;;;;;-5.36;79.88;84225.56;5079856;28;20047;-57
2021/12/03 00:37:58;;;;;;;0.55;0.30;;;;;;;-5.39;79.76;84226.53;5073326;28;20056;-58
2021/12/03 00:40:31;;;;;;;0.10;0.10;;;;;;;-5.42;80.01;84227.50;5079640;28;20090;-58
2021/12/03 00:42:58;;;;;;;0.95;0.17;;;;;;;-5.36;79.58;84236.22;5073063;28;20036;-55
2021/12/03 00:45:24;;;;;;;0.20;0.20;;;;;;;-5.41;79.12;84235.00;5062555;28;20475;-55
2021/12/03 00:47:51;;;;;;;0.20;0.20;;;;;;;-5.43;78.73;84237.44;5073139;28;20052;-58
2021/12/03 00:50:20;;;;;;;0.25;0.20;;;;;;;-5.50;78.58;84235.22;5072045;28;20121;-56
2021/12/03 00:52:47;;;;;;;0.32;0.28;;;;;;;-5.49;79.29;84236.69;5090388;28;20040;-58
2021/12/03 00:55:15;;;;;;;0.28;0.20;;;;;;;-5.52;80.25;84242.94;5082786;28;20023;-58
2021/12/03 00:57:41;;;;;;;0.38;0.20;;;;;;;-5.49;79.65;84243.94;5070246;28;20526;-58
2021/12/03 01:00:17;;;;;;;0.30;0.20;;;;;;;-5.55;77.70;84249.25;5087187;28;20448;-58
2021/12/03 01:02:44;;;;;;;0.17;0.17;;;;;;;-5.58;77.00;84257.47;5090343;28;20035;-58
2021/12/03 01:05:10;;;;;;;0.20;0.20;;;;;;;-5.64;76.73;84258.16;5065896;28;20073;-58
2021/12/03 01:07:37;;;;;;;0.10;0.10;;;;;;;-5.65;76.61;84259.38;5086403;28;20039;-58
2021/12/03 01:10:05;;;;;;;0.63;0.20;;;;;;;-5.68;77.81;84260.34;5062114;28;20017;-58
2021/12/03 01:12:31;;;;;;;0.30;0.30;;;;;;;-5.67;78.89;84261.06;5075415;28;20035;-57
2021/12/03 01:14:57;;;;;;;0.20;0.20;;;;;;;-5.68;79.86;84264.94;5073695;28;20024;-57
2021/12/03 01:17:23;;;;;;;0.85;0.32;;;;;;;-5.67;78.12;84272.44;5071455;28;20056;-57
2021/12/03 01:19:49;;;;;;;0.38;0.38;;;;;;;-5.69;78.31;84274.84;5067653;28;20047;-56
2021/12/03 01:22:15;;;;;;;1.33;0.38;;;;;;;-5.67;79.72;84272.44;5089664;28;20040;-58
2021/12/03 01:24:41;;;;;;;0.30;0.30;;;;;;;-5.68;78.41;84284.31;5081916;28;20429;-58
2021/12/03 01:27:07;;;;;;;0.57;0.30;;;;;;;-5.63;76.83;84286.28;5089875;28;20483;-58
2021/12/03 01:29:33;;;;;;;0.20;0.20;;;;;;;-5.63;77.13;84286.28;5065367;28;20028;-58
2021/12/03 01:31:59;;;;;;;0.20;0.20;;;;;;;-5.60;77.44;84292.56;5089108;28;20070;-56
2021/12/03 01:34:26;;;;;;;0.20;0.20;;;;;;;-5.60;77.08;84303.22;5064945;28;20450;-57
2021/12/03 01:36:52;;;;;;;0.20;0.20;;;;;;;-5.61;78.22;84301.75;5090036;28;20058;-58
2021/12/03 01:39:19;;;;;;;0.55;0.28;;;;;;;-5.63;79.03;84304.16;5080686;28;20121;-57
2021/12/03 01:41:45;;;;;;;0.15;0.10;;;;;;;-5.64;78.79;84316.03;5073504;28;20032;-55
2021/12/03 01:44:11;;;;;;;0.28;0.28;;;;;;;-5.62;77.77;84316.28;5056237;28;20554;-55
2021/12/03 01:46:37;;;;;;;0.30;0.25;;;;;;;-5.62;78.74;84325.00;5073310;28;20036;-57
2021/12/03 01:49:05;;;;;;;0.47;0.30;;;;;;;-5.63;78.32;84322.81;5072665;28;20024;-56
2021/12/03 01:51:31;;;;;;;0.30;0.22;;;;;;;-5.61;78.33;84331.03;5069793;28;20143;-57
2021/12/03 01:53:57;;;;;;;1.05;0.32;;;;;;;-5.61;79.30;84339.03;5058520;28;20036;-56
2021/12/03 01:56:23;;;;;;;16.92;5.80;;;;;;;-5.58;78.95;84335.41;5054632;28;20043;-57
2021/12/03 01:58:51;;;;;;;27.70;9.65;;;;;;;-5.59;79.77;84339.28;5060386;28;20020;-55
2021/12/03 02:01:23;;;;;;;2.28;1.10;;;;;;;-5.56;80.44;84334.94;5071776;28;20032;-57
2021/12/03 02:03:55;;;;;;;0.50;0.40;;;;;;;-5.57;80.82;84336.16;5080002;28;20028;-57
2021/12/03 02:06:23;;;;;;;1.13;0.65;;;;;;;-5.57;80.65;84346.78;5071082;28;20070;-57
2021/12/03 02:08:49;;;;;;;0.50;0.50;;;;;;;-5.53;80.51;84349.97;5060472;28;20024;-57
2021/12/03 02:11:16;;;;;;;0.63;0.40;;;;;;;-5.50;80.31;84357.00;5070033;28;20152;-59
2021/12/03 02:13:43;;;;;;;0.40;0.20;;;;;;;-5.49;79.04;84359.22;5072447;28;20016;-57
2021/12/03 02:16:14;;;;;;;0.30;0.30;;;;;;;-5.45;79.47;84365.03;5056197;28;20040;-57
2021/12/03 02:18:40;;;;;;;0.30;0.30;;;;;;;-5.42;79.33;84366.75;5079817;28;20032;-57
2021/12/03 02:21:09;;;;;;;0.88;0.40;;;;;;;-5.41;80.93;84370.13;5052450;28;20024;-57
2021/12/03 02:23:37;;;;;;;0.30;0.22;;;;;;;-5.38;82.22;84379.09;5083354;28;20062;-57
2021/12/03 02:26:04;;;;;;;0.55;0.47;;;;;;;-5.38;82.10;84381.78;5056965;28;20043;-57
2021/12/03 02:28:34;;;;;;;0.35;0.35;;;;;;;-5.44;82.08;84379.06;5079433;28;20422;-54
2021/12/03 02:31:01;;;;;;;0.30;0.30;;;;;;;-5.44;82.05;84379.81;5084841;28;20495;-57
2021/12/03 02:33:27;;;;;;;0.40;0.40;;;;;;;-5.46;81.68;84389.47;5069113;28;20028;-57
2021/12/03 02:36:33;;;;;;;0.63;0.40;;;;;;;-5.49;81.80;84398.41;5083659;28;20036;-56
2021/12/03 02:40:00;;;;;;;0.80;0.30;;;;;;;-5.51;82.81;84401.56;4948680;28;20039;-58
2021/12/03 02:43:47;;;;;;;1.45;0.50;;;;;;;-5.51;84.35;84398.91;4791246;29;20066;-57
2021/12/03 02:49:33;;;;;;;;;;;;;;;-5.48;82.93;84405.22;5150094;27;20414;-56
2021/12/03 02:53:02;;;;;;;1.02;0.30;;;;;;;-5.51;80.95;84393.56;5008516;28;19950;-57
2021/12/03 02:56:34;;;;;;;0.90;0.50;;;;;;;-5.56;82.49;84399.59;4852926;29;20133;-57
2021/12/03 03:06:36;;;;;;;0.25;0.25;;;;;;;-5.65;83.92;84426.41;5183337;27;20425;-56
2021/12/03 03:10:24;;;;;;;0.47;0.35;;;;;;;-5.71;84.61;84423.00;4981928;28;20080;-57
2021/12/03 03:25:23;;;;;;;0.50;0.22;;;;;;;-5.78;86.35;84458.03;5103456;27;20771;-57
2021/12/03 03:29:10;;;;;;;0.85;0.50;;;;;;;-5.87;86.50;84456.25;5029142;28;20524;-57
2021/12/03 03:32:56;;;;;;;1.25;0.40;;;;;;;-5.89;86.47;84456.00;4886323;29;20053;-56
2021/12/03 03:39:22;;;;;;;0.30;0.30;;;;;;;-5.95;85.40;84471.22;5148113;27;20382;-57
2021/12/03 03:43:09;;;;;;;0.15;0.13;;;;;;;-6.11;85.45;84469.88;4906513;29;20048;-56
2021/12/03 03:46:36;;;;;;;0.70;0.30;;;;;;;-6.12;85.11;84495.03;4769121;30;20066;-55
2021/12/03 04:05:14;;;;;;;1.20;0.38;;;;;;;-6.37;86.24;84510.50;5108028;27;20405;-57
2021/12/03 04:09:01;;;;;;;0.57;0.32;;;;;;;-6.33;85.96;84519.00;4907117;29;20073;-54
2021/12/03 04:20:16;;;;;;;6.10;2.10;;;;;;;-6.43;85.05;84519.63;5108150;27;20380;-52
2021/12/03 04:24:03;;;;;;;7.72;2.15;;;;;;;-6.42;84.78;84531.72;4974716;28;20047;-54
2021/12/03 04:35:24;;;;;;;4.30;1.50;;;;;;;-6.55;83.56;84534.72;5149404;27;20380;-57
2021/12/03 04:39:12;;;;;;;11.65;3.28;;;;;;;-6.59;82.79;84536.84;4852495;29;20117;-57
2021/12/03 05:05:15;;;;;;;2.05;1.30;;;;;;;-6.79;83.24;84554.25;5064075;28;20388;-54
2021/12/03 05:09:01;;;;;;;4.13;1.70;;;;;;;-6.78;83.10;84561.03;4987693;28;20099;-57
2021/12/03 05:20:15;;;;;;;1.27;0.70;;;;;;;-6.88;84.49;84583.63;5128903;27;20374;-57
2021/12/03 05:24:04;;;;;;;2.75;0.60;;;;;;;-6.89;82.64;84592.78;4897246;29;20179;-57
2021/12/03 05:34:35;;;;;;;1.52;0.80;;;;;;;-6.97;82.47;84594.38;5126684;27;20227;-57
2021/12/03 05:38:21;;;;;;;0.68;0.50;;;;;;;-6.97;82.19;84602.34;4834492;29;20050;-56
2021/12/03 06:00:12;;;;;;;1.98;1.10;;;;;;;-7.23;80.93;84626.09;5099705;27;20380;-55
2021/12/03 06:03:59;;;;;;;3.30;1.60;;;;;;;-7.25;83.01;84637.19;4899256;29;20040;-54
2021/12/03 06:15:14;;;;;;;2.08;1.27;;;;;;;-7.44;80.61;84662.47;5087450;27;20760;-54
2021/12/03 06:19:00;;;;;;;3.42;1.73;;;;;;;-7.53;80.47;84670.53;4917592;29;20040;-54
2021/12/03 06:30:13;;;;;;;7.18;3.10;;;;;;;-7.71;81.54;84688.06;5191014;27;20125;-54
2021/12/03 06:37:49;;;;;;;3.67;1.67;;;;;;;-7.89;81.39;84712.13;4854309;29;20044;-53
2021/12/03 06:45:24;;;;;;;10.05;4.47;;;;;;;-7.85;81.95;84719.91;5190904;27;20379;-55
2021/12/03 06:49:11;;;;;;;7.88;3.80;;;;;;;-7.86;81.30;84723.75;4889502;29;20056;-54
2021/12/03 07:00:13;;;;;;;3.40;2.20;;;;;;;-7.91;80.88;84733.78;5099745;27;20377;-56
2021/12/03 07:04:00;;;;;;;3.63;1.98;;;;;;;-7.94;79.93;84734.69;4898757;29;20075;-54
2021/12/03 07:15:16;;;;;;;3.25;1.30;;;;;;;-8.05;81.57;84768.25;5083153;28;20746;-56
2021/12/03 07:19:03;;;;;;;6.68;2.60;;;;;;;-8.02;80.42;84772.63;4927712;29;20039;-54
2021/12/03 07:30:30;;;;;;;4.22;2.17;;;;;;;-8.00;80.64;84783.53;5191278;27;20375;-58
2021/12/03 07:34:14;;;;;;;4.85;2.22;;;;;;;-7.98;80.09;84791.75;4889902;29;20053;-56
2021/12/03 07:45:17;;;;;;;8.15;3.00;;;;;;;-8.02;80.09;84813.16;5108045;27;20898;-57
2021/12/03 07:49:04;;;;;;;11.15;3.45;;;;;;;-7.91;79.06;84820.63;4975243;28;20043;-54
2021/12/03 08:00:13;;;;;;;15.68;5.93;;;;;;;-7.81;79.03;84831.91;5099884;27;20424;-53
2021/12/03 08:04:00;;;;;;;17.08;5.95;;;;;;;-7.81;78.37;84831.91;4899747;29;20053;-57
2021/12/03 08:15:13;;;;;;;7.28;2.28;;;;;;;-4.46;75.74;84831.31;5190992;27;20125;-58
2021/12/03 08:19:00;;;;;;;12.20;4.50;;;;;;;-3.01;68.32;84816.78;4943640;29;20044;-55
2021/12/03 08:30:13;;;;;;;4.05;2.10;;;;;;;-0.42;53.32;84808.78;5191194;27;20129;-56
2021/12/03 08:34:00;;;;;;;3.55;1.70;;;;;;;0.56;51.44;84803.81;4943529;29;20046;-56
2021/12/03 08:45:17;;;;;;;3.83;1.60;;;;;;;1.52;46.50;84809.78;5108268;27;20905;-56
2021/12/03 08:48:26;;;;;;;1.13;0.60;;;;;;;2.13;44.44;84814.94;4927787;29;20054;-59
2021/12/03 09:10:17;;;;;;;10.88;1.05;;;;;;;0.85;42.77;84854.22;5085062;27;20382;-59
2021/12/03 09:14:12;;;;;;;0.73;0.43;;;;;;;1.00;43.20;84848.47;5027059;28;20044;-59
2021/12/03 09:25:17;;;;;;;3.63;0.77;;;;;;;2.67;38.73;84830.91;5158073;27;20378;-60
2021/12/03 09:29:04;;;;;;;2.28;1.40;;;;;;;3.35;37.73;84827.88;4935232;29;20051;-61
2021/12/03 09:40:20;;;;;;;4.90;1.98;;;;;;;4.46;35.31;84825.63;5190912;27;20889;-59
2021/12/03 09:44:03;;;;;;;6.05;1.88;;;;;;;4.83;33.81;84821.88;4945307;29;20145;-62
2021/12/03 09:55:15;;;;;;;13.02;2.00;;;;;;;5.49;33.33;84822.84;5190923;27;20128;-60
2021/12/03 09:59:31;;;;;;;3.28;1.70;;;;;;;5.50;33.25;84837.88;4943594;29;20046;-62
2021/12/03 10:03:03;;;;;;;11.07;1.80;;;;;;;5.69;32.53;84841.13;4812834;29;20055;-62
2021/12/03 10:10:08;;;;;;;0.38;0.35;;;;;;;1.71;37.21;84862.97;5103046;27;20419;-60
2021/12/03 10:35:49;;;;;;;5.82;1.60;;;;;;;3.82;33.78;84823.91;5191397;27;20391;-61
2021/12/03 10:54:13;;;;;;;6.60;3.80;;;;;;;3.39;36.29;84816.78;4945876;28;20043;-61
2021/12/03 12:19:52;;;;;;;10.43;3.72;;;;;;;2.81;36.86;84779.69;4982559;28;20042;-63
2021/12/03 13:19:45;;;;;;;3.10;1.00;;;;;;;0.13;37.68;84797.00;4965221;28;20043;-62
2021/12/03 14:41:10;;;;;;;1.45;1.02;;;;;;;-5.24;45.52;84849.88;4909211;29;20036;-60
2021/12/03 14:44:03;;;;;;;1.83;0.70;;;;;;;-5.31;46.29;84848.34;4888120;29;20075;-60
2021/12/03 14:49:23;;;;;;;0.55;0.35;;;;;;;-5.52;46.13;84850.25;4888662;29;20448;-60
2021/12/03 14:57:06;;;;;;;4.82;2.50;;;;;;;-5.57;47.32;84839.50;4876847;29;20401;-60
2021/12/03 14:59:34;;;;;;;53.40;16.70;;;;;;;-5.64;45.71;84849.34;4860978;29;20505;-60
2021/12/03 15:02:35;;;;;;;9.60;3.28;;;;;;;-5.72;47.99;84848.28;4860586;29;20076;-60
2021/12/03 15:05:14;;;;;;;2.28;1.25;;;;;;;-5.74;48.54;84848.03;4857761;29;20105;-60
2021/12/03 15:07:48;;;;;;;31.95;11.70;;;;;;;-5.76;48.62;84850.41;4872907;29;20592;-60
2021/12/03 15:10:40;;;;;;;20.35;8.02;;;;;;;-5.77;48.64;84858.84;4857519;29;20037;-60
2021/12/03 15:29:51;;;;;;;2.67;1.00;;;;;;;-6.31;49.59;84890.97;5050370;28;20496;-57
2021/12/03 15:31:48;;;;;;;1.00;0.68;;;;;;;-6.45;49.87;84892.44;5042688;28;20098;-58
2021/12/03 16:08:27;;;;;;;1.90;1.05;;;;;;;-6.94;50.34;84927.56;5049636;28;20064;-59
2021/12/03 16:19:06;;;;;;;5.07;2.00;;;;;;;-6.91;51.58;84913.38;5049596;28;20028;-59
2021/12/03 16:51:25;;;;;;;8.73;3.47;;;;;;;-7.06;53.08;84927.31;5049620;28;20128;-59
2021/12/03 16:53:55;;;;;;;8.45;3.08;;;;;;;-7.11;54.00;84933.28;5048363;28;20120;-59
2021/12/03 16:56:25;;;;;;;6.53;2.72;;;;;;;-7.12;53.31;84937.09;5032858;28;20041;-59
2021/12/03 16:58:53;;;;;;;6.55;2.80;;;;;;;-7.20;54.44;84930.66;5032271;28;20032;-59
2021/12/03 17:04:02;;;;;;;7.38;3.13;;;;;;;-7.38;55.41;84922.81;5048583;28;20029;-58
2021/12/03 17:49:36;;;;;;;26.00;8.27;;;;;;;-7.82;56.26;84926.72;5048422;28;20361;-58
2021/12/03 17:52:28;;;;;;;29.27;8.95;;;;;;;-7.90;56.88;84931.63;5048118;28;20075;-58
2021/12/03 18:00:47;;;;;;;15.23;6.28;;;;;;;-7.94;58.63;84936.34;5048359;28;20255;-59
2021/12/03 18:08:31;;;;;;;12.02;4.30;;;;;;;-7.87;61.49;84935.28;5049261;28;20025;-55
2021/12/03 18:11:28;;;;;;;24.83;8.90;;;;;;;-7.98;62.87;84929.72;5048245;28;20044;-59
2021/12/03 19:05:43;;;;;;;2.75;1.73;;;;;;;-7.93;60.25;84937.06;5108374;27;20387;-56
2021/12/03 19:35:22;;;;;;;4.10;2.03;;;;;;;-7.81;63.43;84928.19;5149423;27;20388;-58
2021/12/03 19:39:08;;;;;;;3.30;1.60;;;;;;;-7.79;64.94;84925.81;4852298;29;20579;-58
2021/12/03 19:50:27;;;;;;;;;;;;;;;-7.61;64.50;84917.03;5191928;27;20374;-59
2021/12/03 19:54:06;;;;;;;3.53;1.40;;;;;;;-7.47;64.67;84915.66;4975242;28;19949;-58
2021/12/03 19:57:53;;;;;;;6.10;2.28;;;;;;;-7.40;64.25;84911.91;4886977;29;20548;-59
2021/12/03 20:04:39;;;;;;;7.38;2.90;;;;;;;-7.25;64.69;84902.81;5107467;27;20395;-58
2021/12/03 20:08:26;;;;;;;5.03;2.13;;;;;;;-7.18;65.51;84906.31;4927187;29;20126;-58
2021/12/03 20:12:16;;;;;;;4.97;1.90;;;;;;;-7.10;65.52;84902.84;4870247;29;20042;-58
2021/12/03 20:18:59;;;;;;;4.75;1.90;;;;;;;-7.07;66.38;84890.59;5107679;27;20395;-58
2021/12/03 20:22:53;;;;;;;5.00;1.77;;;;;;;-7.09;66.20;84892.97;4946742;28;20274;-59
2021/12/03 20:30:05;;;;;;;;;;;;;;;-6.99;66.24;84870.44;5104651;27;20385;-58
2021/12/03 20:37:12;;;;;;;4.45;1.60;;;;;;;-7.03;67.04;84867.97;4874714;29;20041;-58
2021/12/03 20:41:03;;;;;;;;;;;;;;;;;;;;;
2021/12/03 21:09:17;;;;;;;2.92;1.38;;;;;;;-6.72;66.29;84884.69;5040600;28;20045;-57
2021/12/03 21:13:20;;;;;;;3.33;1.42;;;;;;;-6.70;66.40;84888.38;4946039;28;20039;-58
2021/12/03 21:20:15;;;;;;;;;;;;;;;-6.61;66.49;84879.56;5128612;27;20132;-59
2021/12/03 21:23:56;;;;;;;4.22;1.50;;;;;;;-6.63;66.27;84881.97;5034048;28;19913;-60
2021/12/03 21:27:47;;;;;;;0.98;0.90;;;;;;;-6.57;64.37;84882.78;4870531;29;20049;-59
2021/12/03 21:39:19;;;;;;;6.20;2.83;;;;;;;-6.46;65.06;84882.25;4927034;29;20051;-60
2021/12/03 21:42:57;;;;;;;4.60;2.85;;;;;;;-6.37;64.17;84876.84;4813430;29;20042;-59
2021/12/03 21:50:28;;;;;;;2.58;1.40;;;;;;;-6.31;64.83;84864.38;5087744;27;20180;-58
2021/12/03 21:54:13;;;;;;;3.35;1.23;;;;;;;-6.31;65.41;84861.69;4946208;28;20051;-60
2021/12/03 22:05:27;;;;;;;0.40;0.40;;;;;;;-6.36;62.20;84857.78;5087742;27;21024;-60
2021/12/03 22:09:15;;;;;;;3.70;0.80;;;;;;;-6.34;63.18;84852.72;4855872;29;20056;-56
2021/12/03 22:20:32;;;;;;;0.73;0.52;;;;;;;-6.21;62.42;84846.38;5108326;27;20380;-61
2021/12/03 22:24:18;;;;;;;4.22;0.85;;;;;;;-6.20;62.76;84850.50;4927383;29;20063;-60
2021/12/03 22:35:33;;;;;;;0.50;0.40;;;;;;;-6.16;62.08;84843.81;5108267;27;20383;-58
2021/12/03 22:39:23;;;;;;;1.33;0.60;;;;;;;-6.14;60.78;84844.06;4927380;29;20094;-57
2021/12/03 22:42:26;;;;;;;6.15;0.77;;;;;;;-6.13;60.57;84856.19;4867312;29;20556;-57
2021/12/03 22:44:52;;;;;;;1.75;0.55;;;;;;;-6.14;59.96;84849.38;4850211;29;20494;-59
2021/12/03 22:47:21;;;;;;;0.50;0.20;;;;;;;-6.11;56.56;84847.72;4868525;29;20044;-58
2021/12/03 22:52:19;;;;;;;0.80;0.30;;;;;;;-6.02;54.21;84849.56;4868816;29;20057;-54
2021/12/03 22:54:45;;;;;;;1.33;0.70;;;;;;;-5.98;53.53;84844.78;4849090;29;20049;-58
2021/12/03 22:57:14;;;;;;;0.40;0.40;;;;;;;-6.00;51.91;84831.94;4869285;29;20087;-59
2021/12/03 22:59:42;;;;;;;0.50;0.50;;;;;;;-5.98;52.10;84834.88;4856552;29;20049;-58
2021/12/03 23:02:10;;;;;;;0.57;0.43;;;;;;;-6.00;49.93;84836.53;4869194;29;20387;-58
2021/12/03 23:04:41;;;;;;;0.45;0.30;;;;;;;-6.01;50.80;84833.13;4863462;29;20041;-55
2021/12/03 23:07:09;;;;;;;1.13;0.60;;;;;;;-5.99;49.52;84837.97;4869641;29;20200;-58
2021/12/03 23:09:38;;;;;;;0.88;0.30;;;;;;;-6.00;48.75;84831.94;4862916;29;20045;-56
2021/12/03 23:12:06;;;;;;;0.60;0.52;;;;;;;-5.91;48.35;84841.72;4869677;29;20049;-57
2021/12/03 23:14:32;;;;;;;0.30;0.30;;;;;;;-5.92;47.37;84842.91;4857980;29;20053;-56
2021/12/03 23:17:00;;;;;;;0.60;0.60;;;;;;;-5.95;46.25;84843.88;4889339;29;20109;-58
2021/12/03 23:19:29;;;;;;;0.65;0.28;;;;;;;-5.91;45.08;84841.72;4985372;28;20131;-55
2021/12/03 23:21:57;;;;;;;0.65;0.20;;;;;;;-5.92;45.16;84826.94;5068370;28;20051;-56
2021/12/03 23:24:23;;;;;;;0.60;0.60;;;;;;;-5.94;44.93;84829.34;5067818;28;20024;-59
2021/12/03 23:26:49;;;;;;;1.20;0.70;;;;;;;-5.93;44.30;84831.53;5068505;28;20403;-58
2021/12/03 23:29:15;;;;;;;0.68;0.40;;;;;;;-5.92;44.93;84829.59;5084903;28;20061;-56
2021/12/03 23:31:44;;;;;;;0.55;0.38;;;;;;;-5.83;48.92;84829.47;5068282;28;20032;-57
2021/12/03 23:34:14;;;;;;;0.93;0.40;;;;;;;-5.87;48.82;84821.69;5067599;28;20035;-58
2021/12/03 23:36:42;;;;;;;0.40;0.40;;;;;;;-5.92;48.24;84825.00;5048482;28;20044;-58
2021/12/03 23:39:09;;;;;;;0.35;0.32;;;;;;;-5.95;48.94;84827.91;5065342;28;20709;-58
2021/12/03 23:41:35;;;;;;;0.30;0.30;;;;;;;-6.00;48.50;84829.28;5048443;28;20048;-57
2021/12/03 23:44:03;;;;;;;1.80;0.50;;;;;;;-6.02;46.96;84828.25;5072658;28;20021;-55
2021/12/03 23:46:29;;;;;;;1.95;0.43;;;;;;;-6.05;47.56;84821.94;5035597;28;20090;-55
2021/12/03 23:48:57;;;;;;;0.80;0.35;;;;;;;-6.08;45.81;84825.53;5050350;28;20115;-58
2021/12/03 23:51:25;;;;;;;1.02;0.70;;;;;;;-6.00;46.98;84823.94;5054840;28;20411;-55
2021/12/03 23:53:52;;;;;;;0.95;0.50;;;;;;;-6.04;48.27;84820.03;5046308;28;20081;-58
2021/12/03 23:56:19;;;;;;;0.43;0.38;;;;;;;-6.10;46.70;84817.28;5054938;28;20037;-58
2021/12/03 23:58:48;;;;;;;1.15;0.47;;;;;;;-6.10;48.75;84825.28;5054225;28;20039;-59
